sensor_id;sensor_type;location;lat;lon;timestamp;pressure;altitude;pressure_sealevel;temperature;humidity
8253;BME280;61313;48.396;10.008;2023-07-22T00:00:49;96210.31;;;17.74;58.08
8253;BME280;61313;48.396;10.008;2023-07-22T00:03:14;96204.88;;;17.75;58.45
8253;BME280;61313;48.396;10.008;2023-07-22T00:05:40;96204.16;;;17.73;58.52
8253;BME280;61313;48.396;10.008;2023-07-22T00:08:05;96199.09;;;17.70;58.14
8253;BME280;61313;48.396;10.008;2023-07-22T00:10:31;96207.38;;;17.66;58.04
8253;BME280;61313;48.396;10.008;2023-07-22T00:12:56;96205.44;;;17.56;58.68
8253;BME280;61313;48.396;10.008;2023-07-22T00:15:22;96200.75;;;17.60;58.29
8253;BME280;61313;48.396;10.008;2023-07-22T00:17:49;96208.81;;;17.59;58.14
8253;BME280;61313;48.396;10.008;2023-07-22T00:20:14;96205.44;;;17.56;58.02
8253;BME280;61313;48.396;10.008;2023-07-22T00:22:40;96205.78;;;17.52;58.07
8253;BME280;61313;48.396;10.008;2023-07-22T00:25:10;96203.75;;;17.55;58.11
8253;BME280;61313;48.396;10.008;2023-07-22T00:27:45;96204.47;;;17.58;57.93
8253;BME280;61313;48.396;10.008;2023-07-22T00:30:10;96206.84;;;17.49;58.11
8253;BME280;61313;48.396;10.008;2023-07-22T00:32:36;96199.63;;;17.51;58.02
8253;BME280;61313;48.396;10.008;2023-07-22T00:35:06;96197.75;;;17.41;58.28
8253;BME280;61313;48.396;10.008;2023-07-22T00:37:32;96197.31;;;17.47;58.11
8253;BME280;61313;48.396;10.008;2023-07-22T00:39:58;96192.97;;;17.46;58.02
8253;BME280;61313;48.396;10.008;2023-07-22T00:42:24;96185.63;;;17.49;58.06
8253;BME280;61313;48.396;10.008;2023-07-22T00:44:49;96182.47;;;17.44;57.70
8253;BME280;61313;48.396;10.008;2023-07-22T00:47:15;96182.47;;;17.44;57.91
8253;BME280;61313;48.396;10.008;2023-07-22T00:49:41;96183.06;;;17.37;57.93
8253;BME280;61313;48.396;10.008;2023-07-22T00:52:06;96181.13;;;17.39;58.02
8253;BME280;61313;48.396;10.008;2023-07-22T00:54:32;96183.41;;;17.32;58.09
8253;BME280;61313;48.396;10.008;2023-07-22T00:56:57;96184.00;;;17.35;58.25
8253;BME280;61313;48.396;10.008;2023-07-22T00:59:24;96184.84;;;17.36;58.06
8253;BME280;61313;48.396;10.008;2023-07-22T01:01:49;96188.22;;;17.38;58.28
8253;BME280;61313;48.396;10.008;2023-07-22T01:04:16;96183.00;;;17.25;58.65
8253;BME280;61313;48.396;10.008;2023-07-22T01:06:44;96181.44;;;17.23;58.02
8253;BME280;61313;48.396;10.008;2023-07-22T01:09:10;96182.38;;;17.22;58.30
8253;BME280;61313;48.396;10.008;2023-07-22T01:11:35;96185.66;;;17.25;57.88
8253;BME280;61313;48.396;10.008;2023-07-22T01:14:01;96177.59;;;17.27;57.57
8253;BME280;61313;48.396;10.008;2023-07-22T01:16:27;96173.06;;;17.16;58.18
8253;BME280;61313;48.396;10.008;2023-07-22T01:18:54;96173.06;;;17.16;58.04
8253;BME280;61313;48.396;10.008;2023-07-22T01:21:22;96177.03;;;17.10;58.20
8253;BME280;61313;48.396;10.008;2023-07-22T01:23:48;96183.50;;;17.06;58.64
8253;BME280;61313;48.396;10.008;2023-07-22T01:26:14;96174.72;;;17.06;58.75
8253;BME280;61313;48.396;10.008;2023-07-22T01:28:39;96170.50;;;17.03;58.95
8253;BME280;61313;48.396;10.008;2023-07-22T01:31:04;96175.38;;;16.97;58.79
8253;BME280;61313;48.396;10.008;2023-07-22T01:33:31;96175.59;;;16.93;58.86
8253;BME280;61313;48.396;10.008;2023-07-22T01:35:57;96174.75;;;16.93;58.68
8253;BME280;61313;48.396;10.008;2023-07-22T01:38:22;96180.50;;;16.87;58.40
8253;BME280;61313;48.396;10.008;2023-07-22T01:40:47;96169.91;;;16.87;58.85
8253;BME280;61313;48.396;10.008;2023-07-22T01:43:13;96161.84;;;16.88;58.64
8253;BME280;61313;48.396;10.008;2023-07-22T01:45:38;96163.75;;;16.86;58.55
8253;BME280;61313;48.396;10.008;2023-07-22T01:48:05;96171.59;;;16.88;58.46
8253;BME280;61313;48.396;10.008;2023-07-22T01:50:31;96171.81;;;16.85;59.00
8253;BME280;61313;48.396;10.008;2023-07-22T01:52:57;96169.59;;;16.79;58.77
8253;BME280;61313;48.396;10.008;2023-07-22T01:55:22;96163.75;;;16.73;59.19
8253;BME280;61313;48.396;10.008;2023-07-22T01:57:48;96159.44;;;16.72;59.12
8253;BME280;61313;48.396;10.008;2023-07-22T02:00:13;96165.50;;;16.62;59.59
8253;BME280;61313;48.396;10.008;2023-07-22T02:02:41;96167.31;;;16.61;59.61
8253;BME280;61313;48.396;10.008;2023-07-22T02:05:07;96170.28;;;16.57;60.16
8253;BME280;61313;48.396;10.008;2023-07-22T02:07:33;96168.38;;;16.59;59.78
8253;BME280;61313;48.396;10.008;2023-07-22T02:09:59;96179.16;;;16.56;59.95
8253;BME280;61313;48.396;10.008;2023-07-22T02:12:24;96170.28;;;16.57;60.02
8253;BME280;61313;48.396;10.008;2023-07-22T02:14:49;96165.59;;;16.60;60.40
8253;BME280;61313;48.396;10.008;2023-07-22T02:17:15;96165.81;;;16.57;60.37
8253;BME280;61313;48.396;10.008;2023-07-22T02:19:41;96170.84;;;16.49;60.65
8253;BME280;61313;48.396;10.008;2023-07-22T02:22:06;96172.84;;;16.45;60.77
8253;BME280;61313;48.396;10.008;2023-07-22T02:24:32;96184.28;;;16.46;61.06
8253;BME280;61313;48.396;10.008;2023-07-22T02:26:57;96185.16;;;16.46;61.10
8253;BME280;61313;48.396;10.008;2023-07-22T02:29:23;96190.63;;;16.43;61.14
8253;BME280;61313;48.396;10.008;2023-07-22T02:31:48;96181.66;;;16.33;61.91
8253;BME280;61313;48.396;10.008;2023-07-22T02:34:13;96191.47;;;16.44;61.75
8253;BME280;61313;48.396;10.008;2023-07-22T02:36:39;96189.06;;;16.41;61.71
8253;BME280;61313;48.396;10.008;2023-07-22T02:39:04;96193.31;;;16.30;61.90
8253;BME280;61313;48.396;10.008;2023-07-22T02:41:29;96191.41;;;16.20;62.56
8253;BME280;61313;48.396;10.008;2023-07-22T02:43:55;96186.84;;;16.22;62.22
8253;BME280;61313;48.396;10.008;2023-07-22T02:46:21;96183.88;;;16.26;62.20
8253;BME280;61313;48.396;10.008;2023-07-22T02:48:47;96185.91;;;16.23;62.19
8253;BME280;61313;48.396;10.008;2023-07-22T02:51:12;96189.41;;;16.23;62.51
8253;BME280;61313;48.396;10.008;2023-07-22T02:53:37;96195.00;;;16.32;62.10
8253;BME280;61313;48.396;10.008;2023-07-22T02:56:06;96187.69;;;16.22;62.37
8253;BME280;61313;48.396;10.008;2023-07-22T02:58:32;96193.09;;;16.34;62.07
8253;BME280;61313;48.396;10.008;2023-07-22T03:00:58;96197.88;;;16.28;62.36
8253;BME280;61313;48.396;10.008;2023-07-22T03:03:24;96202.31;;;16.41;61.63
8253;BME280;61313;48.396;10.008;2023-07-22T03:05:49;96207.81;;;16.25;62.16
8253;BME280;61313;48.396;10.008;2023-07-22T03:08:16;96206.75;;;16.27;62.00
8253;BME280;61313;48.396;10.008;2023-07-22T03:10:42;96217.13;;;16.18;62.06
8253;BME280;61313;48.396;10.008;2023-07-22T03:13:13;96214.16;;;16.22;61.76
8253;BME280;61313;48.396;10.008;2023-07-22T03:15:38;96213.97;;;16.13;62.13
8253;BME280;61313;48.396;10.008;2023-07-22T03:18:04;96208.69;;;16.00;62.42
8253;BME280;61313;48.396;10.008;2023-07-22T03:20:31;96205.28;;;15.98;62.39
8253;BME280;61313;48.396;10.008;2023-07-22T03:22:57;96198.50;;;15.94;62.76
8253;BME280;61313;48.396;10.008;2023-07-22T03:25:22;96193.00;;;16.09;62.04
8253;BME280;61313;48.396;10.008;2023-07-22T03:27:47;96203.50;;;16.11;62.25
8253;BME280;61313;48.396;10.008;2023-07-22T03:30:15;96200.00;;;15.98;62.61
8253;BME280;61313;48.396;10.008;2023-07-22T03:32:45;96204.63;;;15.81;62.94
8253;BME280;61313;48.396;10.008;2023-07-22T03:35:10;96208.25;;;15.93;62.76
8253;BME280;61313;48.396;10.008;2023-07-22T03:37:37;96210.56;;;15.85;62.90
8253;BME280;61313;48.396;10.008;2023-07-22T03:40:06;96214.47;;;15.79;63.07
8253;BME280;61313;48.396;10.008;2023-07-22T03:42:53;96213.94;;;15.74;63.38
8253;BME280;61313;48.396;10.008;2023-07-22T03:45:19;96221.47;;;15.80;62.97
8253;BME280;61313;48.396;10.008;2023-07-22T03:47:46;96215.66;;;15.88;63.25
8253;BME280;61313;48.396;10.008;2023-07-22T03:50:12;96209.31;;;15.91;63.02
8253;BME280;61313;48.396;10.008;2023-07-22T03:52:37;96202.84;;;15.95;63.05
8253;BME280;61313;48.396;10.008;2023-07-22T03:55:04;96211.00;;;16.04;62.35
8253;BME280;61313;48.396;10.008;2023-07-22T03:57:31;96213.34;;;16.09;62.56
8253;BME280;61313;48.396;10.008;2023-07-22T03:59:57;96212.81;;;16.04;62.41
8253;BME280;61313;48.396;10.008;2023-07-22T04:02:23;96205.06;;;16.01;62.58
8253;BME280;61313;48.396;10.008;2023-07-22T04:04:50;96202.84;;;16.07;62.32
8253;BME280;61313;48.396;10.008;2023-07-22T04:07:16;96203.72;;;16.21;61.86
8253;BME280;61313;48.396;10.008;2023-07-22T04:09:41;96193.31;;;16.30;61.51
8253;BME280;61313;48.396;10.008;2023-07-22T04:12:07;96187.00;;;16.57;60.29
8253;BME280;61313;48.396;10.008;2023-07-22T04:14:33;96198.16;;;16.37;61.42
8253;BME280;61313;48.396;10.008;2023-07-22T04:16:58;96197.00;;;16.41;61.07
8253;BME280;61313;48.396;10.008;2023-07-22T04:19:24;96192.97;;;16.48;60.59
8253;BME280;61313;48.396;10.008;2023-07-22T04:21:49;96196.00;;;16.67;60.12
8253;BME280;61313;48.396;10.008;2023-07-22T04:24:14;96182.97;;;16.64;59.87
8253;BME280;61313;48.396;10.008;2023-07-22T04:26:42;96197.09;;;16.52;59.93
8253;BME280;61313;48.396;10.008;2023-07-22T04:29:07;96198.78;;;16.53;60.10
8253;BME280;61313;48.396;10.008;2023-07-22T04:31:33;96197.97;;;16.77;58.79
8253;BME280;61313;48.396;10.008;2023-07-22T04:33:58;96194.34;;;17.03;58.04
8253;BME280;61313;48.396;10.008;2023-07-22T04:36:24;96199.09;;;17.11;57.37
8253;BME280;61313;48.396;10.008;2023-07-22T04:38:49;96205.13;;;17.13;58.09
8253;BME280;61313;48.396;10.008;2023-07-22T04:41:16;96193.59;;;17.25;58.03
8253;BME280;61313;48.396;10.008;2023-07-22T04:43:41;96200.38;;;17.29;57.57
8253;BME280;61313;48.396;10.008;2023-07-22T04:46:06;96200.47;;;17.52;57.28
8253;BME280;61313;48.396;10.008;2023-07-22T04:48:32;96192.91;;;17.59;56.35
8253;BME280;61313;48.396;10.008;2023-07-22T04:50:58;96207.44;;;17.77;56.32
8253;BME280;61313;48.396;10.008;2023-07-22T04:53:23;96208.94;;;17.92;55.49
8253;BME280;61313;48.396;10.008;2023-07-22T04:55:48;96211.03;;;18.00;55.59
8253;BME280;61313;48.396;10.008;2023-07-22T04:58:14;96217.06;;;18.13;55.37
8253;BME280;61313;48.396;10.008;2023-07-22T05:00:39;96215.03;;;18.28;55.10
8253;BME280;61313;48.396;10.008;2023-07-22T05:03:05;96212.28;;;18.52;54.44
8253;BME280;61313;48.396;10.008;2023-07-22T05:05:31;96221.94;;;18.65;53.63
8253;BME280;61313;48.396;10.008;2023-07-22T05:07:56;96217.50;;;18.76;52.59
8253;BME280;61313;48.396;10.008;2023-07-22T05:10:22;96216.28;;;18.80;53.12
8253;BME280;61313;48.396;10.008;2023-07-22T05:12:48;96214.09;;;18.86;53.41
8253;BME280;61313;48.396;10.008;2023-07-22T05:15:16;96217.34;;;19.00;52.77
8253;BME280;61313;48.396;10.008;2023-07-22T05:17:41;96222.28;;;19.05;52.73
8253;BME280;61313;48.396;10.008;2023-07-22T05:20:07;96212.69;;;19.25;52.65
8253;BME280;61313;48.396;10.008;2023-07-22T05:22:38;96228.63;;;19.25;52.64
8253;BME280;61313;48.396;10.008;2023-07-22T05:25:05;96225.84;;;19.38;52.04
8253;BME280;61313;48.396;10.008;2023-07-22T05:27:30;96224.38;;;19.45;51.99
8253;BME280;61313;48.396;10.008;2023-07-22T05:29:56;96221.13;;;19.74;51.14
8253;BME280;61313;48.396;10.008;2023-07-22T05:32:21;96218.81;;;19.80;50.75
8253;BME280;61313;48.396;10.008;2023-07-22T05:34:47;96225.63;;;19.73;50.96
8253;BME280;61313;48.396;10.008;2023-07-22T05:37:12;96223.31;;;20.01;50.56
8253;BME280;61313;48.396;10.008;2023-07-22T05:39:37;96218.53;;;20.04;50.50
8253;BME280;61313;48.396;10.008;2023-07-22T05:42:03;96228.09;;;20.28;50.08
8253;BME280;61313;48.396;10.008;2023-07-22T05:44:28;96225.16;;;20.31;49.81
8253;BME280;61313;48.396;10.008;2023-07-22T05:46:54;96226.19;;;20.61;49.41
8253;BME280;61313;48.396;10.008;2023-07-22T05:49:20;96225.84;;;20.54;49.33
8253;BME280;61313;48.396;10.008;2023-07-22T05:51:46;96231.44;;;20.72;48.71
8253;BME280;61313;48.396;10.008;2023-07-22T05:54:11;96228.84;;;20.91;48.12
8253;BME280;61313;48.396;10.008;2023-07-22T05:56:37;96234.69;;;20.85;47.94
8253;BME280;61313;48.396;10.008;2023-07-22T05:59:02;96233.19;;;21.02;48.11
8253;BME280;61313;48.396;10.008;2023-07-22T06:01:27;96226.84;;;21.34;47.41
8253;BME280;61313;48.396;10.008;2023-07-22T06:03:53;96231.88;;;21.37;46.95
8253;BME280;61313;48.396;10.008;2023-07-22T06:06:18;96226.00;;;21.33;47.08
8253;BME280;61313;48.396;10.008;2023-07-22T06:08:44;96231.88;;;21.37;46.52
8253;BME280;61313;48.396;10.008;2023-07-22T06:11:09;96232.34;;;21.42;47.03
8253;BME280;61313;48.396;10.008;2023-07-22T06:13:35;96233.34;;;21.51;46.31
8253;BME280;61313;48.396;10.008;2023-07-22T06:16:00;96234.34;;;21.69;45.68
8253;BME280;61313;48.396;10.008;2023-07-22T06:18:25;96239.41;;;21.72;45.87
8253;BME280;61313;48.396;10.008;2023-07-22T06:20:51;96235.59;;;21.85;45.89
8253;BME280;61313;48.396;10.008;2023-07-22T06:23:16;96239.66;;;21.98;45.60
8253;BME280;61313;48.396;10.008;2023-07-22T06:25:42;96242.34;;;22.08;45.42
8253;BME280;61313;48.396;10.008;2023-07-22T06:28:08;96241.91;;;22.03;45.24
8253;BME280;61313;48.396;10.008;2023-07-22T06:30:33;96245.16;;;22.26;44.99
8253;BME280;61313;48.396;10.008;2023-07-22T06:32:58;96238.09;;;22.45;45.15
8253;BME280;61313;48.396;10.008;2023-07-22T06:35:24;96244.16;;;22.47;44.79
8253;BME280;61313;48.396;10.008;2023-07-22T06:37:49;96244.22;;;22.65;44.69
8253;BME280;61313;48.396;10.008;2023-07-22T06:40:15;96245.41;;;22.90;44.19
8253;BME280;61313;48.396;10.008;2023-07-22T06:42:40;96253.69;;;22.96;43.85
8253;BME280;61313;48.396;10.008;2023-07-22T06:45:06;96250.56;;;23.11;43.61
8253;BME280;61313;48.396;10.008;2023-07-22T06:47:31;96251.25;;;23.13;43.54
8253;BME280;61313;48.396;10.008;2023-07-22T06:49:57;96253.84;;;23.68;42.76
8253;BME280;61313;48.396;10.008;2023-07-22T06:52:23;96248.97;;;23.36;44.03
8253;BME280;61313;48.396;10.008;2023-07-22T06:54:48;96253.63;;;23.61;42.79
8253;BME280;61313;48.396;10.008;2023-07-22T06:57:14;96254.66;;;23.78;42.72
8253;BME280;61313;48.396;10.008;2023-07-22T06:59:39;96252.44;;;23.92;41.99
8253;BME280;61313;48.396;10.008;2023-07-22T07:02:05;96249.16;;;23.98;42.15
8253;BME280;61313;48.396;10.008;2023-07-22T07:04:30;96252.13;;;23.95;42.02
8253;BME280;61313;48.396;10.008;2023-07-22T07:06:56;96256.88;;;24.01;42.19
8253;BME280;61313;48.396;10.008;2023-07-22T07:09:21;96257.81;;;24.09;42.27
8253;BME280;61313;48.396;10.008;2023-07-22T07:11:46;96262.94;;;24.03;41.96
8253;BME280;61313;48.396;10.008;2023-07-22T07:14:12;96259.59;;;24.27;41.75
8253;BME280;61313;48.396;10.008;2023-07-22T07:16:38;96249.16;;;24.42;41.45
8253;BME280;61313;48.396;10.008;2023-07-22T07:19:03;96256.50;;;24.58;40.71
8253;BME280;61313;48.396;10.008;2023-07-22T07:21:28;96254.16;;;24.55;40.79
8253;BME280;61313;48.396;10.008;2023-07-22T07:23:54;96258.66;;;24.36;40.90
8253;BME280;61313;48.396;10.008;2023-07-22T07:26:20;96252.44;;;24.09;41.31
8253;BME280;61313;48.396;10.008;2023-07-22T07:28:46;96267.06;;;23.79;41.53
8253;BME280;61313;48.396;10.008;2023-07-22T07:31:12;96257.03;;;23.36;42.58
8253;BME280;61313;48.396;10.008;2023-07-22T07:33:37;96268.63;;;23.27;42.95
8253;BME280;61313;48.396;10.008;2023-07-22T07:36:03;96260.81;;;23.61;42.25
8253;BME280;61313;48.396;10.008;2023-07-22T07:38:29;96258.41;;;23.85;42.08
8253;BME280;61313;48.396;10.008;2023-07-22T07:41:00;96259.22;;;24.22;40.54
8253;BME280;61313;48.396;10.008;2023-07-22T07:43:26;96258.41;;;24.21;40.40
8253;BME280;61313;48.396;10.008;2023-07-22T07:46:12;96249.94;;;24.52;39.70
8253;BME280;61313;48.396;10.008;2023-07-22T07:48:37;96253.72;;;24.67;38.41
8253;BME280;61313;48.396;10.008;2023-07-22T07:51:03;96254.91;;;24.73;38.55
8253;BME280;61313;48.396;10.008;2023-07-22T07:53:28;96249.38;;;24.75;38.82
8253;BME280;61313;48.396;10.008;2023-07-22T07:55:54;96252.00;;;24.92;37.89
8253;BME280;61313;48.396;10.008;2023-07-22T07:58:19;96253.75;;;25.02;37.88
8253;BME280;61313;48.396;10.008;2023-07-22T08:00:44;96249.44;;;25.17;37.68
8253;BME280;61313;48.396;10.008;2023-07-22T08:03:10;96250.16;;;25.19;37.18
8253;BME280;61313;48.396;10.008;2023-07-22T08:05:35;96250.66;;;25.23;36.58
8253;BME280;61313;48.396;10.008;2023-07-22T08:08:01;96246.34;;;25.38;36.37
8253;BME280;61313;48.396;10.008;2023-07-22T08:10:26;96240.03;;;25.64;36.18
8253;BME280;61313;48.396;10.008;2023-07-22T08:12:51;96240.84;;;25.48;36.42
8253;BME280;61313;48.396;10.008;2023-07-22T08:15:17;96238.81;;;25.50;36.51
8253;BME280;61313;48.396;10.008;2023-07-22T08:17:44;96237.53;;;25.78;35.71
8253;BME280;61313;48.396;10.008;2023-07-22T08:20:10;96242.50;;;25.49;35.10
8253;BME280;61313;48.396;10.008;2023-07-22T08:22:36;96240.97;;;25.46;34.92
8253;BME280;61313;48.396;10.008;2023-07-22T08:25:01;96244.72;;;25.62;33.89
8253;BME280;61313;48.396;10.008;2023-07-22T08:27:28;96233.97;;;25.70;33.64
8253;BME280;61313;48.396;10.008;2023-07-22T08:29:53;96236.19;;;25.66;33.94
8253;BME280;61313;48.396;10.008;2023-07-22T08:32:19;96236.13;;;25.58;33.68
8253;BME280;61313;48.396;10.008;2023-07-22T08:34:44;96239.16;;;25.55;33.70
8253;BME280;61313;48.396;10.008;2023-07-22T08:37:09;96226.41;;;25.65;32.96
8253;BME280;61313;48.396;10.008;2023-07-22T08:39:35;96225.88;;;25.37;34.31
8253;BME280;61313;48.396;10.008;2023-07-22T08:42:03;96225.59;;;25.73;33.58
8253;BME280;61313;48.396;10.008;2023-07-22T08:44:34;96227.84;;;25.94;32.50
8253;BME280;61313;48.396;10.008;2023-07-22T08:47:03;96221.13;;;26.14;31.17
8253;BME280;61313;48.396;10.008;2023-07-22T08:49:30;96221.63;;;26.10;31.41
8253;BME280;61313;48.396;10.008;2023-07-22T08:51:56;96228.13;;;25.66;31.87
8253;BME280;61313;48.396;10.008;2023-07-22T08:54:24;96227.84;;;25.94;31.61
8253;BME280;61313;48.396;10.008;2023-07-22T08:56:50;96222.41;;;25.86;31.55
8253;BME280;61313;48.396;10.008;2023-07-22T08:59:19;96233.81;;;25.63;32.56
8253;BME280;61313;48.396;10.008;2023-07-22T09:01:46;96221.94;;;25.90;30.35
8253;BME280;61313;48.396;10.008;2023-07-22T09:04:13;96220.09;;;26.07;30.63
8253;BME280;61313;48.396;10.008;2023-07-22T09:06:39;96221.63;;;26.34;30.16
8253;BME280;61313;48.396;10.008;2023-07-22T09:09:06;96226.47;;;26.31;29.58
8253;BME280;61313;48.396;10.008;2023-07-22T09:11:34;96219.59;;;26.28;29.93
8253;BME280;61313;48.396;10.008;2023-07-22T09:14:02;96226.16;;;26.26;30.77
8253;BME280;61313;48.396;10.008;2023-07-22T09:16:28;96221.28;;;26.54;29.87
8253;BME280;61313;48.396;10.008;2023-07-22T09:18:57;96221.44;;;26.19;30.35
8253;BME280;61313;48.396;10.008;2023-07-22T09:21:22;96217.59;;;25.97;29.90
8253;BME280;61313;48.396;10.008;2023-07-22T09:23:48;96217.06;;;26.27;30.05
8253;BME280;61313;48.396;10.008;2023-07-22T09:26:15;96219.59;;;26.36;29.72
8253;BME280;61313;48.396;10.008;2023-07-22T09:28:55;96207.66;;;26.55;29.58
8253;BME280;61313;48.396;10.008;2023-07-22T09:31:22;96223.63;;;26.49;29.60
8253;BME280;61313;48.396;10.008;2023-07-22T09:33:48;96215.66;;;26.80;28.72
8253;BME280;61313;48.396;10.008;2023-07-22T09:36:14;96213.81;;;26.80;28.93
8253;BME280;61313;48.396;10.008;2023-07-22T09:38:40;96211.50;;;26.61;29.27
8253;BME280;61313;48.396;10.008;2023-07-22T09:41:05;96222.75;;;26.73;28.94
8253;BME280;61313;48.396;10.008;2023-07-22T09:43:31;96208.66;;;26.63;29.45
8253;BME280;61313;48.396;10.008;2023-07-22T09:46:05;96207.59;;;26.80;28.65
8253;BME280;61313;48.396;10.008;2023-07-22T09:48:39;96206.31;;;26.27;29.63
8253;BME280;61313;48.396;10.008;2023-07-22T09:51:05;96203.06;;;25.58;30.51
8253;BME280;61313;48.396;10.008;2023-07-22T09:53:31;96209.75;;;25.45;30.69
8253;BME280;61313;48.396;10.008;2023-07-22T09:56:03;96212.94;;;25.41;30.48
8253;BME280;61313;48.396;10.008;2023-07-22T09:58:30;96206.75;;;25.06;30.36
8253;BME280;61313;48.396;10.008;2023-07-22T10:00:57;96211.38;;;24.87;30.75
8253;BME280;61313;48.396;10.008;2023-07-22T10:03:23;96200.22;;;25.08;30.92
8253;BME280;61313;48.396;10.008;2023-07-22T10:05:51;96216.94;;;24.94;31.52
8253;BME280;61313;48.396;10.008;2023-07-22T10:08:18;96207.44;;;25.08;30.68
8253;BME280;61313;48.396;10.008;2023-07-22T10:10:44;96210.78;;;25.02;30.31
8253;BME280;61313;48.396;10.008;2023-07-22T10:13:10;96209.06;;;24.92;31.00
8253;BME280;61313;48.396;10.008;2023-07-22T10:15:36;96211.50;;;24.78;31.38
8253;BME280;61313;48.396;10.008;2023-07-22T10:18:03;96218.75;;;24.85;32.00
8253;BME280;61313;48.396;10.008;2023-07-22T10:20:29;96219.50;;;24.69;31.81
8253;BME280;61313;48.396;10.008;2023-07-22T10:22:55;96208.75;;;24.17;32.39
8253;BME280;61313;48.396;10.008;2023-07-22T10:25:22;96214.13;;;24.17;32.62
8253;BME280;61313;48.396;10.008;2023-07-22T10:27:49;96223.91;;;24.26;32.32
8253;BME280;61313;48.396;10.008;2023-07-22T10:30:16;96221.81;;;24.38;32.26
8253;BME280;61313;48.396;10.008;2023-07-22T10:32:45;96207.06;;;24.95;32.21
8253;BME280;61313;48.396;10.008;2023-07-22T10:37:46;96205.44;;;25.77;30.92
8253;BME280;61313;48.396;10.008;2023-07-22T10:40:18;96210.44;;;25.55;31.47
8253;BME280;61313;48.396;10.008;2023-07-22T10:45:29;96209.44;;;25.06;31.70
8253;BME280;61313;48.396;10.008;2023-07-22T11:04:25;96181.41;;;25.08;32.58
8253;BME280;61313;48.396;10.008;2023-07-22T11:07:03;96181.31;;;25.18;32.08
8253;BME280;61313;48.396;10.008;2023-07-22T11:11:57;96184.78;;;25.69;31.38
8253;BME280;61313;48.396;10.008;2023-07-22T11:14:25;96176.22;;;25.74;31.46
8253;BME280;61313;48.396;10.008;2023-07-22T11:16:51;96169.47;;;25.70;31.66
8253;BME280;61313;48.396;10.008;2023-07-22T11:19:19;96170.66;;;25.67;31.55
8253;BME280;61313;48.396;10.008;2023-07-22T11:21:46;96163.44;;;25.84;30.64
8253;BME280;61313;48.396;10.008;2023-07-22T11:24:11;96156.56;;;25.98;30.10
8253;BME280;61313;48.396;10.008;2023-07-22T11:26:38;96153.41;;;25.94;30.03
8253;BME280;61313;48.396;10.008;2023-07-22T11:29:05;96152.72;;;25.92;29.71
8253;BME280;61313;48.396;10.008;2023-07-22T11:31:32;96151.72;;;26.02;30.00
8253;BME280;61313;48.396;10.008;2023-07-22T11:33:58;96145.66;;;25.75;30.59
8253;BME280;61313;48.396;10.008;2023-07-22T11:36:24;96146.47;;;25.59;29.81
8253;BME280;61313;48.396;10.008;2023-07-22T11:38:49;96146.44;;;25.51;30.23
8253;BME280;61313;48.396;10.008;2023-07-22T11:41:15;96140.25;;;25.67;30.06
8253;BME280;61313;48.396;10.008;2023-07-22T11:43:40;96143.25;;;25.39;30.50
8253;BME280;61313;48.396;10.008;2023-07-22T11:46:06;96126.06;;;25.07;30.99
8253;BME280;61313;48.396;10.008;2023-07-22T11:48:31;96130.66;;;24.81;32.17
8253;BME280;61313;48.396;10.008;2023-07-22T11:51:02;96132.25;;;25.00;31.30
8253;BME280;61313;48.396;10.008;2023-07-22T11:53:28;96124.78;;;25.36;31.21
8253;BME280;61313;48.396;10.008;2023-07-22T11:55:58;96124.28;;;25.49;30.93
8253;BME280;61313;48.396;10.008;2023-07-22T11:58:26;96121.63;;;25.57;30.44
8253;BME280;61313;48.396;10.008;2023-07-22T12:01:22;96129.50;;;25.42;30.27
8253;BME280;61313;48.396;10.008;2023-07-22T12:03:47;96127.81;;;25.58;30.72
8253;BME280;61313;48.396;10.008;2023-07-22T12:06:14;96125.31;;;25.72;30.19
8253;BME280;61313;48.396;10.008;2023-07-22T12:08:47;96111.03;;;25.72;30.53
8253;BME280;61313;48.396;10.008;2023-07-22T12:11:20;96113.06;;;25.86;29.99
8253;BME280;61313;48.396;10.008;2023-07-22T12:13:46;96110.84;;;25.82;30.38
8253;BME280;61313;48.396;10.008;2023-07-22T12:16:21;96106.97;;;25.84;29.90
8253;BME280;61313;48.396;10.008;2023-07-22T12:18:49;96105.97;;;25.77;29.96
8253;BME280;61313;48.396;10.008;2023-07-22T12:21:14;96099.78;;;25.60;30.56
8253;BME280;61313;48.396;10.008;2023-07-22T12:23:41;96108.03;;;25.75;29.75
8253;BME280;61313;48.396;10.008;2023-07-22T12:26:07;96094.91;;;25.47;30.10
8253;BME280;61313;48.396;10.008;2023-07-22T12:28:33;96096.41;;;25.25;30.46
8253;BME280;61313;48.396;10.008;2023-07-22T12:30:58;96095.25;;;25.36;30.94
8253;BME280;61313;48.396;10.008;2023-07-22T12:33:25;96084.34;;;25.38;31.06
8253;BME280;61313;48.396;10.008;2023-07-22T12:35:51;96091.06;;;25.25;31.17
8253;BME280;61313;48.396;10.008;2023-07-22T12:38:17;96088.88;;;25.37;30.13
8253;BME280;61313;48.396;10.008;2023-07-22T12:40:42;96085.16;;;25.22;30.75
8253;BME280;61313;48.396;10.008;2023-07-22T12:43:07;96082.25;;;25.15;30.75
8253;BME280;61313;48.396;10.008;2023-07-22T12:45:33;96088.94;;;25.11;31.24
8253;BME280;61313;48.396;10.008;2023-07-22T12:47:59;96079.75;;;25.13;31.69
8253;BME280;61313;48.396;10.008;2023-07-22T12:50:24;96085.09;;;25.05;32.22
8253;BME280;61313;48.396;10.008;2023-07-22T12:52:49;96085.59;;;24.92;32.48
8253;BME280;61313;48.396;10.008;2023-07-22T12:55:15;96094.66;;;25.08;32.22
8253;BME280;61313;48.396;10.008;2023-07-22T12:57:40;96086.63;;;25.16;31.99
8253;BME280;61313;48.396;10.008;2023-07-22T13:00:06;96083.50;;;25.37;31.93
8253;BME280;61313;48.396;10.008;2023-07-22T13:02:35;96076.47;;;25.44;31.93
8253;BME280;61313;48.396;10.008;2023-07-22T13:05:00;96083.34;;;25.63;31.89
8253;BME280;61313;48.396;10.008;2023-07-22T13:07:26;96080.97;;;25.68;32.11
8253;BME280;61313;48.396;10.008;2023-07-22T13:09:51;96076.41;;;25.77;31.88
8253;BME280;61313;48.396;10.008;2023-07-22T13:12:18;96076.09;;;25.64;32.18
8253;BME280;61313;48.396;10.008;2023-07-22T13:14:45;96076.78;;;25.33;32.84
8253;BME280;61313;48.396;10.008;2023-07-22T13:17:10;96065.47;;;25.13;33.05
8253;BME280;61313;48.396;10.008;2023-07-22T13:19:36;96076.72;;;25.17;33.19